createdAt,value
2018-12-14T00:01:56.097Z,10.85
2018-12-14T00:04:23.945Z,12.28
2018-12-14T00:06:51.483Z,11.80
2018-12-14T00:09:19.043Z,12.07
2018-12-14T00:11:46.627Z,11.63
2018-12-14T00:14:14.180Z,11.50
2018-12-14T00:16:41.718Z,12.15
2018-12-14T00:19:09.310Z,12.37
2018-12-14T00:21:36.882Z,12.47
2018-12-14T00:24:04.519Z,12.50
2018-12-14T00:26:32.058Z,10.78
2018-12-14T00:28:59.614Z,12.25
2018-12-14T00:31:27.310Z,11.30
2018-12-14T00:33:54.869Z,10.28
2018-12-14T00:36:22.399Z,10.95
2018-12-14T00:38:49.963Z,12.73
2018-12-14T00:41:17.500Z,11.97
2018-12-14T00:43:45.049Z,12.37
2018-12-14T00:46:12.582Z,11.30
2018-12-14T00:48:40.134Z,11.93
2018-12-14T00:51:07.666Z,11.45
2018-12-14T00:53:35.219Z,11.88
2018-12-14T00:56:02.750Z,11.25
2018-12-14T00:58:30.301Z,11.53
2018-12-14T01:00:57.838Z,10.85
2018-12-14T01:03:25.425Z,10.65
2018-12-14T01:05:52.953Z,10.23
2018-12-14T01:08:20.516Z,10.43
2018-12-14T01:10:48.055Z,11.63
2018-12-14T01:13:15.611Z,11.78
2018-12-14T01:15:43.218Z,11.43
2018-12-14T01:18:10.750Z,10.98
2018-12-14T01:20:38.302Z,11.73
2018-12-14T01:23:05.838Z,11.45
2018-12-14T01:25:33.399Z,10.93
2018-12-14T01:28:01.031Z,10.98
2018-12-14T01:30:28.597Z,10.65
2018-12-14T01:32:56.131Z,10.30
2018-12-14T01:35:23.811Z,10.43
2018-12-14T01:37:51.417Z,10.95
2018-12-14T01:40:19.099Z,10.55
2018-12-14T01:42:46.672Z,11.03
2018-12-14T01:45:14.229Z,10.95
2018-12-14T01:47:41.763Z,11.08
2018-12-14T01:50:09.397Z,11.83
2018-12-14T01:52:37.023Z,11.35
2018-12-14T01:55:04.698Z,12.70
2018-12-14T01:57:32.265Z,10.13
2018-12-14T01:59:59.818Z,11.68
2018-12-14T02:02:27.353Z,10.70
2018-12-14T02:04:54.906Z,10.08
2018-12-14T02:07:22.434Z,10.60
2018-12-14T02:09:50.134Z,11.08
2018-12-14T02:12:17.662Z,10.60
2018-12-14T02:14:45.209Z,11.08
2018-12-14T02:17:12.733Z,10.18
2018-12-14T02:19:40.326Z,10.75
2018-12-14T02:22:07.920Z,11.18
2018-12-14T02:24:35.505Z,10.08
2018-12-14T02:27:03.039Z,9.65
2018-12-14T02:29:30.594Z,11.80
2018-12-14T02:31:58.217Z,11.22
2018-12-14T02:34:25.767Z,11.80
2018-12-14T02:36:53.302Z,10.65
2018-12-14T02:39:20.866Z,12.25
2018-12-14T02:41:48.402Z,10.65
2018-12-14T02:44:15.949Z,11.08
2018-12-14T02:46:43.478Z,11.68
2018-12-14T02:49:11.025Z,11.88
2018-12-14T02:51:38.690Z,11.20
2018-12-14T02:54:06.249Z,11.20
2018-12-14T02:56:33.806Z,12.35
2018-12-14T02:59:01.374Z,12.10
2018-12-14T03:01:29.074Z,11.18
2018-12-14T03:03:56.610Z,12.13
2018-12-14T03:06:24.226Z,11.78
2018-12-14T03:08:51.758Z,10.93
2018-12-14T03:11:19.381Z,11.57
2018-12-14T03:13:46.951Z,11.00
2018-12-14T03:16:14.509Z,11.12
2018-12-14T03:18:42.081Z,11.65
2018-12-14T03:21:09.663Z,11.30
2018-12-14T03:23:37.190Z,13.00
2018-12-14T03:26:04.826Z,11.65
2018-12-14T03:28:32.388Z,11.43
2018-12-14T03:31:00.047Z,10.68
2018-12-14T03:33:27.626Z,12.70
2018-12-14T03:35:55.307Z,11.18
2018-12-14T03:38:22.879Z,10.75
2018-12-14T03:40:50.613Z,11.00
2018-12-14T03:43:18.211Z,11.03
2018-12-14T03:45:45.762Z,12.03
2018-12-14T03:48:13.343Z,11.45
2018-12-14T03:50:40.945Z,11.25
2018-12-14T03:53:08.478Z,12.23
2018-12-14T03:55:36.025Z,12.03
2018-12-14T03:58:03.697Z,12.05
2018-12-14T04:00:31.395Z,12.13
2018-12-14T04:02:59.065Z,12.05
2018-12-14T04:05:26.863Z,12.05
2018-12-14T04:07:54.402Z,11.38
2018-12-14T04:10:22.032Z,11.73
2018-12-14T04:12:49.561Z,13.43
2018-12-14T04:15:17.121Z,10.72
2018-12-14T04:17:44.746Z,11.97
2018-12-14T04:20:12.352Z,11.20
2018-12-14T04:22:39.882Z,11.60
2018-12-14T04:25:07.470Z,11.83
2018-12-14T04:27:35.006Z,11.25
2018-12-14T04:30:02.743Z,11.60
2018-12-14T04:32:30.390Z,11.40
2018-12-14T04:34:57.938Z,11.50
2018-12-14T04:37:25.469Z,11.88
2018-12-14T04:39:53.023Z,12.88
2018-12-14T04:42:20.737Z,11.68
2018-12-14T04:44:48.352Z,10.50
2018-12-14T04:47:16.234Z,11.12
2018-12-14T04:49:44.018Z,13.10
2018-12-14T04:52:11.682Z,12.33
2018-12-14T04:54:39.226Z,12.37
2018-12-14T04:57:06.902Z,11.45
2018-12-14T04:59:34.526Z,11.75
2018-12-14T05:02:02.173Z,11.48
2018-12-14T05:04:29.701Z,10.35
2018-12-14T05:06:57.259Z,12.13
2018-12-14T05:09:24.893Z,10.08
2018-12-14T05:11:52.448Z,10.08
2018-12-14T05:14:20.274Z,10.88
2018-12-14T05:16:47.920Z,10.78
2018-12-14T05:19:15.503Z,12.80
2018-12-14T05:21:43.510Z,10.78
2018-12-14T05:24:11.146Z,11.15
2018-12-14T05:26:38.717Z,11.78
2018-12-14T05:29:06.255Z,11.40
2018-12-14T05:31:33.866Z,10.88
2018-12-14T05:34:01.451Z,11.63
2018-12-14T05:36:29.118Z,12.60
2018-12-14T05:38:56.681Z,11.33
2018-12-14T05:41:24.233Z,10.90
2018-12-14T05:43:51.769Z,10.23
2018-12-14T05:46:19.411Z,11.15
2018-12-14T05:48:46.989Z,11.03
2018-12-14T05:51:14.656Z,10.38
2018-12-14T05:53:42.183Z,9.18
2018-12-14T05:56:09.775Z,11.90
2018-12-14T05:58:37.324Z,9.63
2018-12-14T06:01:04.873Z,9.08
2018-12-14T06:03:32.403Z,11.25
2018-12-14T06:06:00.034Z,9.30
2018-12-14T06:08:27.567Z,10.32
2018-12-14T06:10:55.162Z,9.40
2018-12-14T06:13:22.695Z,10.32
2018-12-14T06:15:50.339Z,8.45
2018-12-14T06:18:17.958Z,8.55
2018-12-14T06:20:45.530Z,10.55
2018-12-14T06:23:13.106Z,8.80
2018-12-14T06:25:40.771Z,8.00
2018-12-14T06:28:08.309Z,8.35
2018-12-14T06:30:35.875Z,8.93
2018-12-14T06:33:03.427Z,8.18
2018-12-14T06:35:30.967Z,8.03
2018-12-14T06:37:58.554Z,7.80
2018-12-14T06:40:26.126Z,9.33
2018-12-14T06:42:53.690Z,6.87
2018-12-14T06:45:21.250Z,8.88
2018-12-14T06:47:48.801Z,7.22
2018-12-14T06:50:16.374Z,7.12
2018-12-14T06:52:43.931Z,7.22
2018-12-14T06:55:11.582Z,8.98
2018-12-14T06:57:39.215Z,6.40
2018-12-14T07:00:07.625Z,8.18
2018-12-14T07:02:35.268Z,6.50
2018-12-14T07:05:02.837Z,7.42
2018-12-14T07:07:30.382Z,6.42
2018-12-14T07:09:57.950Z,7.17
2018-12-14T07:12:25.549Z,6.15
2018-12-14T07:14:53.084Z,6.97
2018-12-14T07:17:20.678Z,6.15
2018-12-14T07:19:48.281Z,6.50
2018-12-14T07:22:15.829Z,5.70
2018-12-14T07:24:43.353Z,6.33
2018-12-14T07:27:10.908Z,7.20
2018-12-14T07:29:38.447Z,6.50
2018-12-14T07:32:06.044Z,7.35
2018-12-14T07:34:33.585Z,6.62
2018-12-14T07:37:01.186Z,6.85
2018-12-14T07:39:28.723Z,7.15
2018-12-14T07:41:56.279Z,6.08
2018-12-14T07:44:23.885Z,5.78
2018-12-14T07:46:51.578Z,6.85
2018-12-14T07:49:19.115Z,5.40
2018-12-14T07:51:46.661Z,6.90
2018-12-14T07:54:14.194Z,6.30
2018-12-14T07:56:41.750Z,6.83
2018-12-14T07:59:09.624Z,7.00
2018-12-14T08:01:37.174Z,8.00
2018-12-14T08:04:04.699Z,7.65
2018-12-14T08:06:32.250Z,6.83
2018-12-14T08:08:59.791Z,6.85
2018-12-14T08:11:27.382Z,7.35
2018-12-14T08:13:54.914Z,6.72
2018-12-14T08:16:22.452Z,7.25
2018-12-14T08:18:50.050Z,6.80
2018-12-14T08:21:17.706Z,7.67
2018-12-14T08:23:45.263Z,6.53
2018-12-14T08:26:12.790Z,6.60
2018-12-14T08:28:40.334Z,6.75
2018-12-14T08:31:07.863Z,6.97
2018-12-14T08:33:35.421Z,5.47
2018-12-14T08:36:02.954Z,6.78
2018-12-14T08:38:30.504Z,6.33
2018-12-14T08:40:58.032Z,6.85
2018-12-14T08:43:25.582Z,7.15
2018-12-14T08:45:53.213Z,7.47
2018-12-14T08:48:20.898Z,6.92
2018-12-14T08:50:48.571Z,7.33
2018-12-14T08:53:16.362Z,8.93
2018-12-14T08:55:43.891Z,6.35
2018-12-14T08:58:11.437Z,7.20
2018-12-14T09:00:38.965Z,6.72
2018-12-14T09:03:06.515Z,7.65
2018-12-14T09:05:34.046Z,6.92
2018-12-14T09:08:01.666Z,6.80
2018-12-14T09:10:29.242Z,6.75
2018-12-14T09:12:56.798Z,7.10
2018-12-14T09:15:24.333Z,6.75
2018-12-14T09:17:51.959Z,7.20
2018-12-14T09:20:19.488Z,6.90
2018-12-14T09:22:47.277Z,7.33
2018-12-14T09:25:14.816Z,7.20
2018-12-14T09:27:42.455Z,7.50
2018-12-14T09:30:10.065Z,7.05
2018-12-14T09:32:37.624Z,6.15
2018-12-14T09:35:05.274Z,6.83
2018-12-14T09:37:32.818Z,7.22
2018-12-14T09:40:00.347Z,7.40
2018-12-14T09:42:27.894Z,7.83
2018-12-14T09:44:55.462Z,7.12
2018-12-14T09:47:23.011Z,7.28
2018-12-14T09:49:50.546Z,7.30
2018-12-14T09:52:18.094Z,7.22
2018-12-14T09:54:45.627Z,7.40
2018-12-14T09:57:13.195Z,7.10
2018-12-14T09:59:40.722Z,8.15
2018-12-14T10:02:08.329Z,8.15
2018-12-14T10:04:35.875Z,8.28
2018-12-14T10:07:03.403Z,7.72
2018-12-14T10:09:30.953Z,8.18
2018-12-14T10:11:58.482Z,7.97
2018-12-14T10:14:26.034Z,7.33
2018-12-14T10:16:53.601Z,7.97
2018-12-14T10:19:21.156Z,8.65
2018-12-14T10:21:48.746Z,7.55
2018-12-14T10:24:16.301Z,9.78
2018-12-14T10:26:43.875Z,9.30
2018-12-14T10:29:11.422Z,9.18
2018-12-14T10:31:39.026Z,8.95
2018-12-14T10:34:06.569Z,8.65
2018-12-14T10:36:34.178Z,9.08
2018-12-14T10:39:01.747Z,7.85
2018-12-14T10:41:29.384Z,8.50
2018-12-14T10:43:56.971Z,8.63
2018-12-14T10:46:24.539Z,8.10
2018-12-14T10:48:52.086Z,8.85
2018-12-14T10:51:19.711Z,8.60
2018-12-14T10:53:47.257Z,9.08
2018-12-14T10:56:14.789Z,9.13
2018-12-14T10:58:42.334Z,9.20
2018-12-14T11:01:15.591Z,10.08
2018-12-14T11:03:43.138Z,9.75
2018-12-14T11:06:10.670Z,9.95
2018-12-14T11:08:38.226Z,10.40
2018-12-14T11:11:05.750Z,8.50
2018-12-14T11:13:33.299Z,9.80
2018-12-14T11:16:00.830Z,9.58
2018-12-14T11:18:28.373Z,9.83
2018-12-14T11:20:55.906Z,9.70
2018-12-14T11:23:23.478Z,11.60
2018-12-14T11:25:51.007Z,9.93
2018-12-14T11:28:19.466Z,10.03
2018-12-14T11:30:46.998Z,9.65
2018-12-14T11:33:15.441Z,8.98
2018-12-14T11:35:43.021Z,10.00
2018-12-14T11:38:10.617Z,11.03
2018-12-14T11:40:38.149Z,10.45
2018-12-14T11:43:05.796Z,11.15
2018-12-14T11:45:33.395Z,10.50
2018-12-14T11:48:00.926Z,9.15
2018-12-14T11:50:28.471Z,9.63
2018-12-14T11:52:56.004Z,8.80
2018-12-14T11:55:23.550Z,9.33
2018-12-14T11:57:51.082Z,9.43
2018-12-14T12:00:18.634Z,9.93
2018-12-14T12:02:46.167Z,9.68
2018-12-14T12:05:13.717Z,9.43
2018-12-14T12:07:42.434Z,10.43
2018-12-14T12:10:10.105Z,9.98
2018-12-14T12:12:37.633Z,9.63
2018-12-14T12:15:05.258Z,9.95
2018-12-14T12:17:33.314Z,11.33
2018-12-14T12:20:00.861Z,11.63
2018-12-14T12:22:28.395Z,10.08
2018-12-14T12:24:55.971Z,9.95
2018-12-14T12:27:23.502Z,9.18
2018-12-14T12:29:51.052Z,10.05
2018-12-14T12:32:18.586Z,8.80
2018-12-14T12:34:46.147Z,10.80
2018-12-14T12:37:13.730Z,10.20
2018-12-14T12:39:41.392Z,9.28
2018-12-14T12:42:08.923Z,9.68
2018-12-14T12:44:36.479Z,9.70
2018-12-14T12:47:04.059Z,10.80
2018-12-14T12:49:31.613Z,11.50
2018-12-14T12:51:59.147Z,11.20
2018-12-14T12:54:26.693Z,10.18
2018-12-14T12:56:54.262Z,9.00
2018-12-14T12:59:23.557Z,9.70
2018-12-14T13:01:51.835Z,10.32
2018-12-14T13:04:19.386Z,12.00
2018-12-14T13:06:46.918Z,10.80
2018-12-14T13:09:14.477Z,10.75
2018-12-14T13:11:42.054Z,11.55
2018-12-14T13:14:09.606Z,12.20
2018-12-14T13:16:37.134Z,11.53
2018-12-14T13:19:04.725Z,12.85
2018-12-14T13:21:32.339Z,12.40
2018-12-14T13:23:59.894Z,11.30
2018-12-14T13:26:27.425Z,11.90
2018-12-14T13:28:54.974Z,10.38
2018-12-14T13:31:22.545Z,11.30
2018-12-14T13:33:50.098Z,11.20
2018-12-14T13:36:18.099Z,13.88
2018-12-14T13:38:45.756Z,11.75
2018-12-14T13:41:13.366Z,11.83
2018-12-14T13:43:41.030Z,11.78
2018-12-14T13:46:08.593Z,11.88
2018-12-14T13:48:36.172Z,11.88
2018-12-14T13:51:03.721Z,11.75
2018-12-14T13:53:31.254Z,12.45
2018-12-14T13:55:58.864Z,11.68
2018-12-14T13:58:26.395Z,12.10
2018-12-14T14:00:53.941Z,12.23
2018-12-14T14:03:21.475Z,13.18
2018-12-14T14:05:49.034Z,12.60
2018-12-14T14:08:16.572Z,12.33
2018-12-14T14:10:44.162Z,12.88
2018-12-14T14:13:11.695Z,12.35
2018-12-14T14:15:39.246Z,12.23
2018-12-14T14:18:06.793Z,11.50
2018-12-14T14:20:34.388Z,10.93
2018-12-14T14:23:02.388Z,10.80
2018-12-14T14:25:30.071Z,12.07
2018-12-14T14:27:57.611Z,11.25
2018-12-14T14:30:25.289Z,12.13
2018-12-14T14:32:52.831Z,11.57
2018-12-14T14:35:20.386Z,13.40
2018-12-14T14:37:47.913Z,15.20
2018-12-14T14:40:15.466Z,14.30
2018-12-14T14:42:43.003Z,10.93
2018-12-14T14:45:10.599Z,11.53
2018-12-14T14:47:38.134Z,11.95
2018-12-14T14:50:07.874Z,12.10
2018-12-14T14:52:35.414Z,10.90
2018-12-14T14:55:03.149Z,11.18
2018-12-14T14:57:30.719Z,11.28
2018-12-14T14:59:58.272Z,11.85
2018-12-14T15:02:25.811Z,12.30
2018-12-14T15:04:53.375Z,12.47
2018-12-14T15:07:20.919Z,11.57
2018-12-14T15:09:48.471Z,11.88
2018-12-14T15:12:16.001Z,15.43
2018-12-14T15:14:44.731Z,12.73
2018-12-14T15:17:12.501Z,12.70
2018-12-14T15:19:40.119Z,15.13
2018-12-14T15:22:07.701Z,13.55
2018-12-14T15:24:35.239Z,13.05
2018-12-14T15:27:02.834Z,12.35
2018-12-14T15:29:30.374Z,12.85
2018-12-14T15:31:58.307Z,14.98
2018-12-14T15:34:25.833Z,14.90
2018-12-14T15:36:53.390Z,12.70
2018-12-14T15:39:20.926Z,14.93
2018-12-14T15:41:48.486Z,15.83
2018-12-14T15:44:16.021Z,14.63
2018-12-14T15:46:43.584Z,13.25
2018-12-14T15:49:11.114Z,12.10
2018-12-14T15:51:38.670Z,11.65
2018-12-14T15:54:06.230Z,12.07
2018-12-14T15:56:33.829Z,13.25
2018-12-14T15:59:01.357Z,13.40
2018-12-14T16:01:28.914Z,13.98
2018-12-14T16:03:56.451Z,13.58
2018-12-14T16:06:24.003Z,14.40
2018-12-14T16:08:51.538Z,13.28
2018-12-14T16:11:19.090Z,15.75
2018-12-14T16:13:46.623Z,12.50
2018-12-14T16:16:14.174Z,11.28
2018-12-14T16:18:41.712Z,13.45
2018-12-14T16:21:09.269Z,13.78
2018-12-14T16:23:36.837Z,14.10
2018-12-14T16:26:04.578Z,14.33
2018-12-14T16:28:32.213Z,13.68
2018-12-14T16:30:59.765Z,15.65
2018-12-14T16:33:27.301Z,13.83
2018-12-14T16:35:54.862Z,14.05
2018-12-14T16:38:22.402Z,12.40
2018-12-14T16:40:49.957Z,12.98
2018-12-14T16:43:17.704Z,13.50
2018-12-14T16:45:45.337Z,13.30
2018-12-14T16:48:12.871Z,13.65
2018-12-14T16:50:40.502Z,12.78
2018-12-14T16:53:08.286Z,13.78
2018-12-14T16:55:35.849Z,14.10
2018-12-14T16:58:03.422Z,14.00
2018-12-14T17:00:31.047Z,14.05
2018-12-14T17:02:58.632Z,13.32
2018-12-14T17:05:26.168Z,15.05
2018-12-14T17:07:53.729Z,13.83
2018-12-14T17:10:21.342Z,14.33
2018-12-14T17:12:48.933Z,14.10
2018-12-14T17:15:16.461Z,15.25
2018-12-14T17:17:44.016Z,14.58
2018-12-14T17:20:11.591Z,13.78
2018-12-14T17:22:39.248Z,15.35
2018-12-14T17:25:06.878Z,14.65
2018-12-14T17:27:34.522Z,14.13
2018-12-14T17:30:02.214Z,14.50
2018-12-14T17:32:29.771Z,14.65
2018-12-14T17:34:57.355Z,16.70
2018-12-14T17:37:24.914Z,16.25
2018-12-14T17:39:52.494Z,13.75
2018-12-14T17:42:20.066Z,15.55
2018-12-14T17:44:47.679Z,14.00
2018-12-14T17:47:15.314Z,17.05
2018-12-14T17:49:42.851Z,16.07
2018-12-14T17:52:10.462Z,15.78
2018-12-14T17:54:37.998Z,16.15
2018-12-14T17:57:05.610Z,14.85
2018-12-14T17:59:33.145Z,15.90
2018-12-14T18:02:00.698Z,16.27
2018-12-14T18:04:28.235Z,17.42
2018-12-14T18:06:55.782Z,16.52
2018-12-14T18:09:23.362Z,15.85
2018-12-14T18:11:51.046Z,15.88
2018-12-14T18:14:18.578Z,15.65
2018-12-14T18:16:46.274Z,16.20
2018-12-14T18:19:13.845Z,16.52
2018-12-14T18:21:41.394Z,16.55
2018-12-14T18:24:08.927Z,15.08
2018-12-14T18:26:36.481Z,16.07
2018-12-14T18:29:04.056Z,16.07
2018-12-14T18:31:31.610Z,16.45
2018-12-14T18:33:59.142Z,15.35
2018-12-14T18:36:26.739Z,15.93
2018-12-14T18:38:54.274Z,14.53
2018-12-14T18:41:21.911Z,15.58
2018-12-14T18:43:49.547Z,16.37
2018-12-14T18:46:17.150Z,16.00
2018-12-14T18:48:44.726Z,14.53
2018-12-14T18:51:12.294Z,14.00
2018-12-14T18:53:41.883Z,13.70
2018-12-14T18:56:09.422Z,16.02
2018-12-14T18:58:36.997Z,15.63
2018-12-14T19:01:04.531Z,14.20
2018-12-14T19:03:32.082Z,15.58
2018-12-14T19:05:59.624Z,13.85
2018-12-14T19:08:27.344Z,15.10
2018-12-14T19:10:54.973Z,17.32
2018-12-14T19:13:22.609Z,15.88
2018-12-14T19:15:50.176Z,13.90
2018-12-14T19:18:17.770Z,15.20
2018-12-14T19:20:45.319Z,13.62
2018-12-14T19:23:19.423Z,16.00
2018-12-14T19:25:42.524Z,18.35
2018-12-14T19:28:10.076Z,13.72
2018-12-14T19:30:37.610Z,12.82
2018-12-14T19:33:05.161Z,14.20
2018-12-14T19:35:32.738Z,14.15
2018-12-14T19:38:00.290Z,12.50
2018-12-14T19:40:27.822Z,15.20
2018-12-14T19:42:55.382Z,13.90
2018-12-14T19:45:22.994Z,14.50
2018-12-14T19:47:52.062Z,15.38
2018-12-14T19:50:19.676Z,19.45
2018-12-14T19:52:47.342Z,18.65
2018-12-14T19:55:14.869Z,16.02
2018-12-14T19:57:42.482Z,15.40
2018-12-14T20:00:12.048Z,15.53
2018-12-14T20:02:39.637Z,14.43
2018-12-14T20:05:08.162Z,13.93
2018-12-14T20:07:35.815Z,14.18
2018-12-14T20:10:04.131Z,14.78
2018-12-14T20:12:31.682Z,13.62
2018-12-14T20:14:59.228Z,13.98
2018-12-14T20:17:26.830Z,13.15
2018-12-14T20:19:54.367Z,14.65
2018-12-14T20:22:22.695Z,15.95
2018-12-14T20:24:50.274Z,15.15
2018-12-14T20:27:17.933Z,15.55
2018-12-14T20:29:45.505Z,15.48
2018-12-14T20:32:13.105Z,13.90
2018-12-14T20:34:40.637Z,13.78
2018-12-14T20:37:08.205Z,12.20
2018-12-14T20:39:35.793Z,13.65
2018-12-14T20:42:03.362Z,14.35
2018-12-14T20:44:30.936Z,15.40
2018-12-14T20:46:58.547Z,12.80
2018-12-14T20:49:26.099Z,15.00
2018-12-14T20:51:53.638Z,13.30
2018-12-14T20:54:21.185Z,15.38
2018-12-14T20:56:51.546Z,16.57
2018-12-14T20:59:18.291Z,14.30
2018-12-14T21:01:45.820Z,15.05
2018-12-14T21:04:13.370Z,16.80
2018-12-14T21:06:40.917Z,16.23
2018-12-14T21:09:08.474Z,16.57
2018-12-14T21:11:36.065Z,15.50
2018-12-14T21:14:03.663Z,15.30
2018-12-14T21:16:31.243Z,15.98
2018-12-14T21:18:58.808Z,14.30
2018-12-14T21:21:26.470Z,14.47
2018-12-14T21:23:54.041Z,13.80
2018-12-14T21:26:21.579Z,16.65
2018-12-14T21:28:49.173Z,12.55
2018-12-14T21:31:16.710Z,16.35
2018-12-14T21:33:44.301Z,16.73
2018-12-14T21:36:11.834Z,16.20
2018-12-14T21:38:39.391Z,14.70
2018-12-14T21:41:06.962Z,15.85
2018-12-14T21:43:34.513Z,14.87
2018-12-14T21:46:02.048Z,15.98
2018-12-14T21:48:29.601Z,15.55
2018-12-14T21:50:57.134Z,15.18
2018-12-14T21:53:24.685Z,15.25
2018-12-14T21:55:52.257Z,16.62
2018-12-14T21:58:19.809Z,18.00
2018-12-14T22:00:47.392Z,16.42
2018-12-14T22:03:14.950Z,16.20
2018-12-14T22:05:42.486Z,16.10
2018-12-14T22:08:10.138Z,16.10
2018-12-14T22:10:37.670Z,15.95
2018-12-14T22:13:05.222Z,16.87
2018-12-14T22:15:32.763Z,17.67
2018-12-14T22:18:00.362Z,16.25
2018-12-14T22:20:28.030Z,18.92
2018-12-14T22:22:55.609Z,15.85
2018-12-14T22:25:23.281Z,15.15
2018-12-14T22:27:52.145Z,16.05
2018-12-14T22:30:19.961Z,17.35
2018-12-14T22:32:47.498Z,17.32
2018-12-14T22:35:15.057Z,18.50
2018-12-14T22:37:42.610Z,18.42
2018-12-14T22:40:10.203Z,18.52
2018-12-14T22:42:37.738Z,19.30
2018-12-14T22:45:05.471Z,18.50
2018-12-14T22:47:33.001Z,19.07
2018-12-14T22:50:00.548Z,20.20
2018-12-14T22:52:28.117Z,26.85
2018-12-14T22:54:55.674Z,18.67
2018-12-14T22:57:23.202Z,18.57
2018-12-14T22:59:50.841Z,17.75
2018-12-14T23:02:18.424Z,18.70
2018-12-14T23:04:45.981Z,18.40
2018-12-14T23:07:13.522Z,16.00
2018-12-14T23:09:41.124Z,16.25
2018-12-14T23:12:08.697Z,16.65
2018-12-14T23:14:36.250Z,17.45
2018-12-14T23:17:03.883Z,16.25
2018-12-14T23:19:31.442Z,15.85
2018-12-14T23:21:59.018Z,15.40
2018-12-14T23:24:26.562Z,16.35
2018-12-14T23:26:54.094Z,18.70
2018-12-14T23:29:21.642Z,16.60
2018-12-14T23:31:49.184Z,18.17
2018-12-14T23:34:16.741Z,16.20
2018-12-14T23:36:44.326Z,17.45
2018-12-14T23:39:11.987Z,15.40
2018-12-14T23:41:39.562Z,17.48
2018-12-14T23:44:07.134Z,18.87
2018-12-14T23:46:34.706Z,17.62
2018-12-14T23:49:02.282Z,18.90
2018-12-14T23:51:29.832Z,20.45
2018-12-14T23:53:57.385Z,17.60
2018-12-14T23:56:24.930Z,17.75
2018-12-14T23:58:52.486Z,18.23
